Baird, Texas
Current Conditions -  °F | °C
As of 11:52 AM on Thursday 23 Oct 2014 (Local Time) from KABI Reporting Station
Scattered Clouds Scattered Clouds  
Wind Chill: 75°   Ceiling: Unl
Heat Index: 75°   Visibility: 10mi
Dew Point: 58°   Wind: 10mph
Humidity: 55%   Direction: 210°SSW
Pressure: 30.16"   Gusts: NA
Location:  32.39°N, 99.39°W
Report Text: KABI 231652Z 21009KT 10SM SCT060 24/14 A3016 RMK AO2 SLP194 T02390144
Loading
Personal Weather Stations






























Interactive Weather Map New forecast layout! Learn more

10-Day Weather Forecast

Advertisements
Track Severe Weather on mobile